Time;durP1;ratioP1;P1;durP2;ratioP2;P2;SDS_P1;SDS_P2;PMS_P1;PMS_P2;Temp;Humidity;BMP_temperature;BMP_pressure;BME280_temperature;BME280_humidity;BME280_pressure;Samples;Min_cycle;Max_cycle;Signal;HPM_P1;HPM_P2
2023/06/22 03:02:09;;;;;;;7.38;5.10;;;27.30;49.90;;;;;;5158499;23;45517;-62
2023/06/22 03:04:35;;;;;;;7.88;5.00;;;27.30;49.90;;;;;;4933340;28;45314;-62
2023/06/22 03:07:01;;;;;;;8.52;5.80;;;27.30;50.10;;;;;;4962821;28;44653;-62
2023/06/22 03:09:30;;;;;;;6.32;4.85;;;27.20;50.20;;;;;;4967345;28;45479;-62
2023/06/22 03:11:55;;;;;;;5.82;4.93;;;27.20;50.20;;;;;;4930742;28;45283;-62
2023/06/22 03:14:21;;;;;;;6.05;4.90;;;27.20;50.10;;;;;;4966697;28;45533;-62
2023/06/22 03:16:46;;;;;;;6.95;4.72;;;27.30;50.10;;;;;;4962191;28;45529;-61
2023/06/22 03:19:12;;;;;;;5.75;4.13;;;27.30;50.10;;;;;;4954556;28;45174;-61
2023/06/22 03:21:38;;;;;;;6.70;4.80;;;27.30;50.00;;;;;;4948314;28;45592;-62
2023/06/22 03:24:05;;;;;;;5.78;4.78;;;27.30;49.90;;;;;;4971170;28;45564;-62
2023/06/22 03:26:30;;;;;;;6.53;5.03;;;27.30;49.90;;;;;;4964640;28;45697;-62
2023/06/22 03:28:56;;;;;;;7.53;5.40;;;27.30;49.90;;;;;;4967914;28;45406;-61
2023/06/22 03:31:22;;;;;;;4.95;4.38;;;27.30;49.90;;;;;;4947346;28;45331;-62
2023/06/22 03:33:49;;;;;;;7.40;5.20;;;27.30;49.80;;;;;;4969338;28;46163;-63
2023/06/22 03:36:18;;;;;;;8.07;5.25;;;27.30;49.80;;;;;;4933324;28;45198;-65
2023/06/22 03:38:48;;;;;;;6.47;5.03;;;27.30;49.70;;;;;;4970963;28;45501;-62
2023/06/22 03:41:13;;;;;;;6.20;5.07;;;27.40;49.70;;;;;;4964099;28;45187;-62
2023/06/22 03:43:39;;;;;;;5.90;5.03;;;27.40;49.70;;;;;;4957280;28;46939;-63
2023/06/22 03:46:05;;;;;;;7.45;4.85;;;27.30;49.60;;;;;;4964190;28;45675;-63
2023/06/22 03:48:30;;;;;;;5.93;4.88;;;27.40;49.60;;;;;;4968455;28;45740;-63
2023/06/22 03:50:56;;;;;;;8.40;5.32;;;27.40;49.60;;;;;;4966025;28;45386;-63
2023/06/22 03:53:21;;;;;;;7.82;5.20;;;27.40;49.60;;;;;;4971757;28;45352;-63
2023/06/22 03:55:53;;;;;;;6.00;4.88;;;27.40;49.50;;;;;;4964015;28;45650;-63
2023/06/22 03:58:19;;;;;;;6.97;5.32;;;27.40;49.60;;;;;;4951024;28;45565;-63
2023/06/22 04:00:49;;;;;;;8.43;5.28;;;27.40;49.60;;;;;;4927129;28;45428;-63
2023/06/22 04:03:15;;;;;;;6.35;4.90;;;27.40;49.60;;;;;;4962578;28;45509;-63
2023/06/22 04:05:40;;;;;;;9.07;5.68;;;27.40;49.60;;;;;;4943291;28;44885;-63
2023/06/22 04:08:06;;;;;;;7.38;4.70;;;27.40;49.60;;;;;;4968562;28;45375;-63
2023/06/22 04:10:32;;;;;;;7.82;5.18;;;27.40;49.70;;;;;;4962870;28;44857;-63
2023/06/22 04:12:57;;;;;;;6.32;5.00;;;27.40;49.70;;;;;;4952478;28;45768;-63
2023/06/22 04:15:23;;;;;;;7.93;5.10;;;27.40;49.60;;;;;;4965591;28;45336;-63
2023/06/22 04:17:48;;;;;;;6.90;5.53;;;27.40;49.80;;;;;;4951694;28;45412;-63
2023/06/22 04:20:14;;;;;;;8.25;5.28;;;27.40;49.70;;;;;;4967984;28;45391;-64
2023/06/22 04:22:39;;;;;;;8.73;5.55;;;27.40;49.80;;;;;;4970383;28;46058;-63
2023/06/22 04:25:07;;;;;;;7.50;5.10;;;27.40;50.00;;;;;;4968669;28;45431;-64
2023/06/22 04:27:36;;;;;;;8.30;5.25;;;27.30;50.00;;;;;;4967424;28;45251;-62
2023/06/22 04:30:03;;;;;;;6.57;5.47;;;27.30;50.20;;;;;;4971964;28;45239;-63
2023/06/22 04:32:29;;;;;;;8.57;5.55;;;27.30;50.20;;;;;;4946566;28;46476;-63
2023/06/22 04:34:55;;;;;;;6.00;4.82;;;27.30;50.30;;;;;;4953474;28;45322;-62
2023/06/22 04:37:23;;;;;;;11.18;5.88;;;27.30;50.30;;;;;;4949561;28;45369;-61
2023/06/22 04:39:49;;;;;;;6.72;5.95;;;27.20;50.50;;;;;;4972337;28;45192;-62
2023/06/22 04:42:14;;;;;;;6.80;5.35;;;27.30;50.80;;;;;;4968084;28;45858;-62
2023/06/22 04:44:41;;;;;;;7.28;5.82;;;27.30;50.50;;;;;;4953423;28;45607;-62
2023/06/22 04:47:08;;;;;;;6.10;5.15;;;27.30;50.40;;;;;;4936447;28;45523;-62
2023/06/22 04:49:37;;;;;;;7.57;5.05;;;27.30;50.40;;;;;;4971505;28;45099;-62
2023/06/22 04:52:10;;;;;;;6.05;5.45;;;27.30;50.50;;;;;;4972113;28;45906;-62
2023/06/22 04:54:37;;;;;;;7.30;5.50;;;27.30;50.60;;;;;;4954451;28;45448;-62
2023/06/22 04:57:03;;;;;;;7.90;5.70;;;27.30;50.50;;;;;;4969430;28;45202;-63
2023/06/22 04:59:29;;;;;;;6.35;5.75;;;27.30;50.50;;;;;;4973676;28;45149;-62
2023/06/22 05:01:59;;;;;;;5.97;5.35;;;27.30;50.60;;;;;;4962809;28;45701;-63
2023/06/22 05:04:25;;;;;;;8.50;4.97;;;27.30;50.60;;;;;;4955024;28;45270;-62
2023/06/22 05:06:51;;;;;;;5.80;5.10;;;27.30;50.60;;;;;;4970839;28;45238;-62
2023/06/22 05:09:17;;;;;;;5.78;5.13;;;27.30;50.60;;;;;;4956272;28;45336;-63
2023/06/22 05:11:45;;;;;;;6.28;5.68;;;27.30;50.60;;;;;;4967649;28;46029;-63
2023/06/22 05:14:11;;;;;;;8.25;5.35;;;27.30;50.60;;;;;;4971833;28;45221;-63
2023/06/22 05:16:37;;;;;;;5.95;5.35;;;27.30;50.60;;;;;;4964581;28;45002;-63
2023/06/22 05:19:03;;;;;;;6.38;5.22;;;27.40;50.70;;;;;;4972206;28;44853;-63
2023/06/22 05:21:29;;;;;;;9.07;5.30;;;27.40;50.70;;;;;;4969781;28;46110;-63
2023/06/22 05:23:59;;;;;;;6.13;5.18;;;27.40;50.70;;;;;;4970422;28;45226;-63
2023/06/22 05:26:25;;;;;;;8.13;5.20;;;27.40;50.80;;;;;;4969760;28;45311;-62
2023/06/22 05:28:50;;;;;;;6.13;5.15;;;27.40;50.80;;;;;;4973036;28;45745;-62
2023/06/22 05:31:16;;;;;;;6.18;4.95;;;27.40;50.90;;;;;;4957904;28;46322;-62
2023/06/22 05:33:42;;;;;;;6.00;4.78;;;27.40;51.00;;;;;;4944921;28;45505;-63
2023/06/22 05:36:08;;;;;;;6.35;4.85;;;27.40;51.10;;;;;;4963403;28;45483;-63
2023/06/22 05:38:34;;;;;;;6.72;4.97;;;27.40;51.20;;;;;;4967157;28;45454;-63
2023/06/22 05:40:59;;;;;;;7.05;4.63;;;27.40;51.30;;;;;;4946389;28;46106;-63
2023/06/22 05:43:25;;;;;;;5.68;5.07;;;27.40;51.40;;;;;;4953345;28;45918;-62
2023/06/22 05:45:51;;;;;;;10.93;8.27;;;27.40;51.50;;;;;;4959101;28;45550;-63
2023/06/22 05:48:16;;;;;;;14.50;10.90;;;27.40;51.50;;;;;;4966354;28;46376;-63
2023/06/22 05:50:42;;;;;;;13.95;10.23;;;27.40;51.60;;;;;;4945875;28;48271;-63
2023/06/22 05:53:07;;;;;;;11.80;9.10;;;27.40;51.70;;;;;;4971466;28;45568;-65
2023/06/22 05:55:33;;;;;;;9.52;8.32;;;27.30;51.70;;;;;;4953596;28;45061;-64
2023/06/22 05:57:58;;;;;;;12.68;9.55;;;27.30;51.80;;;;;;4977542;28;45761;-64
2023/06/22 06:00:24;;;;;;;10.80;8.10;;;27.40;51.80;;;;;;4965611;28;46137;-65
2023/06/22 06:02:50;;;;;;;10.93;7.88;;;27.40;51.90;;;;;;4973692;28;45332;-64
2023/06/22 06:05:16;;;;;;;8.20;7.20;;;27.40;51.80;;;;;;4956928;28;45795;-63
2023/06/22 06:07:45;;;;;;;7.05;6.13;;;27.40;51.80;;;;;;4977139;28;45683;-63
2023/06/22 06:10:10;;;;;;;6.72;5.82;;;27.50;52.60;;;;;;4936645;28;46908;-64
2023/06/22 06:12:36;;;;;;;11.15;6.30;;;27.50;51.80;;;;;;4973069;28;45952;-64
2023/06/22 06:15:02;;;;;;;7.97;5.35;;;27.60;51.80;;;;;;4957252;28;45670;-64
2023/06/22 06:17:28;;;;;;;8.57;5.47;;;27.60;51.70;;;;;;4967673;28;45591;-64
2023/06/22 06:19:53;;;;;;;6.47;4.88;;;27.60;51.60;;;;;;4976693;28;45519;-65
2023/06/22 06:22:20;;;;;;;7.05;5.55;;;27.60;51.70;;;;;;4953940;28;45311;-64
2023/06/22 06:24:47;;;;;;;7.32;6.38;;;27.60;51.80;;;;;;4973676;28;44700;-64
2023/06/22 06:27:13;;;;;;;6.85;5.15;;;27.70;51.80;;;;;;4965823;28;45296;-65
2023/06/22 06:29:39;;;;;;;7.20;5.07;;;27.70;51.70;;;;;;4976106;28;45476;-64
2023/06/22 06:32:04;;;;;;;5.25;4.75;;;27.70;51.70;;;;;;4947923;28;45362;-64
2023/06/22 06:34:31;;;;;;;9.05;4.93;;;27.70;51.70;;;;;;4968294;28;47293;-64
2023/06/22 06:36:57;;;;;;;8.05;5.00;;;27.80;51.70;;;;;;4970864;28;45314;-64
2023/06/22 06:39:22;;;;;;;6.07;5.13;;;27.80;51.70;;;;;;4976720;28;45840;-63
2023/06/22 06:41:48;;;;;;;7.22;5.10;;;27.80;51.70;;;;;;4948724;28;46024;-64
2023/06/22 06:44:13;;;;;;;7.80;4.53;;;27.80;51.60;;;;;;4956194;28;45320;-63
2023/06/22 06:46:39;;;;;;;7.30;4.93;;;27.90;51.60;;;;;;4965296;28;45143;-65
2023/06/22 06:49:05;;;;;;;6.05;5.03;;;27.90;51.50;;;;;;4969938;28;46287;-64
2023/06/22 06:51:30;;;;;;;7.22;4.95;;;27.90;51.50;;;;;;4966762;28;45317;-65
2023/06/22 06:53:56;;;;;;;6.93;4.60;;;28.00;51.40;;;;;;4977456;28;45531;-64
2023/06/22 06:56:21;;;;;;;5.18;4.68;;;28.10;51.40;;;;;;4968717;28;45764;-65
2023/06/22 06:58:49;;;;;;;6.85;4.43;;;28.10;51.30;;;;;;4938930;28;46039;-64
2023/06/22 07:01:14;;;;;;;9.00;4.60;;;28.20;51.30;;;;;;4962903;28;45339;-65
2023/06/22 07:03:40;;;;;;;5.38;4.28;;;28.30;51.40;;;;;;4967149;28;45870;-64
2023/06/22 07:06:05;;;;;;;6.97;4.28;;;28.30;51.30;;;;;;4969245;28;45342;-64
2023/06/22 07:08:31;;;;;;;6.88;4.68;;;28.30;51.30;;;;;;4955733;28;45979;-65
2023/06/22 07:10:57;;;;;;;10.10;4.93;;;28.30;51.30;;;;;;4951371;28;45376;-66
2023/06/22 07:13:22;;;;;;;5.35;4.53;;;28.30;51.20;;;;;;4958536;28;45387;-65
2023/06/22 07:15:48;;;;;;;6.57;4.38;;;28.30;51.10;;;;;;4969287;28;45257;-64
2023/06/22 07:18:13;;;;;;;5.88;4.85;;;28.40;51.10;;;;;;4949239;28;47162;-65
2023/06/22 07:20:39;;;;;;;6.78;4.25;;;28.50;51.10;;;;;;4967945;28;46785;-65
2023/06/22 07:23:05;;;;;;;6.07;4.80;;;28.50;51.00;;;;;;4975446;28;45013;-63
2023/06/22 07:25:30;;;;;;;4.95;4.32;;;28.50;50.90;;;;;;4967411;28;45391;-65
2023/06/22 07:28:02;;;;;;;10.13;5.03;;;28.60;50.90;;;;;;4971854;28;46144;-64
2023/06/22 07:30:27;;;;;;;5.72;4.22;;;28.60;50.80;;;;;;4967361;28;45103;-65
2023/06/22 07:32:53;;;;;;;6.72;4.80;;;28.70;50.80;;;;;;4951096;28;45528;-64
2023/06/22 07:35:18;;;;;;;8.35;5.38;;;28.70;50.70;;;;;;4967890;28;45158;-65
2023/06/22 07:37:44;;;;;;;9.35;4.47;;;28.70;50.60;;;;;;4972338;28;46486;-65
2023/06/22 07:40:10;;;;;;;8.48;4.90;;;28.80;50.60;;;;;;4967383;28;44940;-65
2023/06/22 07:42:36;;;;;;;6.30;4.68;;;28.80;50.60;;;;;;4976081;28;46312;-66
2023/06/22 07:45:03;;;;;;;6.07;4.60;;;28.90;50.50;;;;;;4975483;28;45594;-65
2023/06/22 07:47:28;;;;;;;7.18;4.45;;;28.90;50.40;;;;;;4945489;28;46121;-61
2023/06/22 07:49:57;;;;;;;6.35;4.50;;;28.90;50.30;;;;;;4973580;28;44965;-65
2023/06/22 07:52:23;;;;;;;5.70;3.85;;;28.90;50.90;;;;;;4967565;28;45494;-64
2023/06/22 07:54:49;;;;;;;5.43;4.43;;;29.00;50.30;;;;;;4970125;28;45383;-64
2023/06/22 07:57:14;;;;;;;5.75;4.75;;;29.00;50.30;;;;;;4968319;28;45572;-65
2023/06/22 07:59:40;;;;;;;7.90;4.53;;;29.00;50.10;;;;;;4972720;28;44819;-65
2023/06/22 08:02:05;;;;;;;5.47;4.25;;;29.10;50.10;;;;;;4942800;28;44972;-65
2023/06/22 08:04:33;;;;;;;8.43;4.60;;;29.20;50.10;;;;;;4940890;28;44825;-65
2023/06/22 08:06:59;;;;;;;6.53;4.20;;;29.20;50.00;;;;;;4969885;28;46307;-63
2023/06/22 08:09:25;;;;;;;6.75;4.35;;;29.20;50.60;;;;;;4972859;28;45268;-64
2023/06/22 08:11:50;;;;;;;6.95;3.90;;;29.20;49.90;;;;;;4949871;28;45048;-63
2023/06/22 08:14:16;;;;;;;6.43;4.32;;;29.20;49.80;;;;;;4958740;28;45325;-64
2023/06/22 08:16:42;;;;;;;5.82;4.43;;;29.30;49.90;;;;;;4947635;28;47215;-64
2023/06/22 08:19:07;;;;;;;7.80;4.22;;;29.30;49.80;;;;;;4973604;28;45285;-64
2023/06/22 08:21:33;;;;;;;6.97;5.00;;;29.40;49.70;;;;;;4968085;28;45356;-63
2023/06/22 08:23:58;;;;;;;4.95;3.53;;;29.40;49.60;;;;;;4957766;28;45327;-64
2023/06/22 08:26:24;;;;;;;5.80;3.92;;;29.50;49.70;;;;;;4949219;28;45787;-63
2023/06/22 08:28:49;;;;;;;6.63;4.53;;;29.50;49.60;;;;;;4971113;28;44693;-63
2023/06/22 08:31:15;;;;;;;6.13;3.97;;;29.50;49.50;;;;;;4962693;28;44882;-63
2023/06/22 08:33:43;;;;;;;5.15;4.47;;;29.50;49.30;;;;;;4971078;28;45006;-63
2023/06/22 08:36:10;;;;;;;6.05;4.10;;;29.60;49.40;;;;;;4966792;28;46272;-64
2023/06/22 08:38:36;;;;;;;8.07;4.25;;;29.60;49.30;;;;;;4970006;28;45088;-63
2023/06/22 08:41:01;;;;;;;8.85;4.40;;;29.60;49.00;;;;;;4966664;28;46007;-63
2023/06/22 08:43:27;;;;;;;7.40;4.60;;;29.70;48.90;;;;;;4951671;28;45303;-63
2023/06/22 08:45:52;;;;;;;6.55;4.20;;;29.70;48.80;;;;;;4963681;28;47354;-65
2023/06/22 08:48:18;;;;;;;5.15;4.30;;;29.70;48.80;;;;;;4970080;28;45389;-64
2023/06/22 08:50:43;;;;;;;6.88;4.18;;;29.80;48.70;;;;;;4967042;28;44729;-63
2023/06/22 08:53:09;;;;;;;7.78;4.70;;;29.80;48.70;;;;;;4970996;28;44976;-63
2023/06/22 08:55:35;;;;;;;5.88;4.32;;;29.90;48.60;;;;;;4966645;28;46148;-63
2023/06/22 08:58:00;;;;;;;5.38;4.32;;;29.90;48.40;;;;;;4973815;28;44869;-63
2023/06/22 09:00:26;;;;;;;9.05;4.10;;;30.00;48.40;;;;;;4963553;28;45592;-62
2023/06/22 09:02:52;;;;;;;6.70;4.13;;;29.90;48.20;;;;;;4956496;28;45598;-63
2023/06/22 09:05:18;;;;;;;5.88;3.88;;;30.00;48.20;;;;;;4968525;28;46079;-65
2023/06/22 09:07:44;;;;;;;5.38;3.88;;;30.00;48.20;;;;;;4941164;28;45269;-63
2023/06/22 09:10:09;;;;;;;5.20;3.75;;;30.10;48.10;;;;;;4949757;28;45206;-64
2023/06/22 09:12:37;;;;;;;6.10;3.80;;;30.10;48.00;;;;;;4972077;28;45229;-63
2023/06/22 09:15:03;;;;;;;5.00;3.75;;;30.20;47.80;;;;;;4972950;28;46283;-62
2023/06/22 09:17:29;;;;;;;6.00;4.22;;;30.20;47.70;;;;;;4915044;28;45423;-63
2023/06/22 09:19:55;;;;;;;6.95;4.47;;;30.20;47.50;;;;;;4974904;28;45257;-63
2023/06/22 09:22:20;;;;;;;5.05;3.17;;;30.30;47.50;;;;;;4964221;28;44990;-63
2023/06/22 09:24:46;;;;;;;8.38;3.97;;;30.30;47.50;;;;;;4952160;28;45978;-63
2023/06/22 09:27:11;;;;;;;5.65;3.35;;;30.30;47.30;;;;;;4969795;28;44688;-64
2023/06/22 09:29:37;;;;;;;6.85;3.70;;;30.40;47.10;;;;;;4980456;28;45593;-64
2023/06/22 09:32:03;;;;;;;3.90;3.33;;;30.40;46.80;;;;;;4934454;28;44800;-63
2023/06/22 09:34:28;;;;;;;5.25;3.08;;;30.40;46.60;;;;;;4960506;28;46289;-63
2023/06/22 09:36:55;;;;;;;6.72;3.35;;;30.40;46.60;;;;;;4956628;28;45542;-63
2023/06/22 09:39:20;;;;;;;4.18;3.40;;;30.40;46.40;;;;;;4974325;28;45398;-63
2023/06/22 09:41:46;;;;;;;6.50;3.63;;;30.50;46.30;;;;;;4972904;28;45647;-63
2023/06/22 09:44:11;;;;;;;6.57;3.08;;;30.50;46.20;;;;;;4970204;28;46178;-64
2023/06/22 09:46:37;;;;;;;5.53;3.38;;;30.50;46.20;;;;;;4964790;28;44677;-63
2023/06/22 09:49:02;;;;;;;8.13;3.75;;;30.50;46.20;;;;;;4973477;28;45316;-64
2023/06/22 09:51:28;;;;;;;4.57;3.30;;;30.60;46.10;;;;;;4951733;28;45490;-64
2023/06/22 09:53:54;;;;;;;4.63;3.22;;;30.60;45.90;;;;;;4973403;28;47418;-66
2023/06/22 09:56:19;;;;;;;4.25;3.40;;;30.60;45.80;;;;;;4950958;28;45506;-63
2023/06/22 09:58:52;;;;;;;4.28;2.83;;;30.60;45.90;;;;;;4971657;28;45693;-64
2023/06/22 10:01:18;;;;;;;8.48;3.25;;;30.70;45.70;;;;;;4936577;28;44979;-63
2023/06/22 10:03:43;;;;;;;6.60;3.30;;;30.70;45.50;;;;;;4973258;28;45158;-64
2023/06/22 10:06:09;;;;;;;6.68;3.20;;;30.80;45.40;;;;;;4963214;28;45015;-63
2023/06/22 10:08:37;;;;;;;12.02;3.50;;;30.80;45.20;;;;;;4970930;28;45383;-62
2023/06/22 10:11:03;;;;;;;4.95;3.38;;;30.70;45.10;;;;;;4968675;28;45268;-63
2023/06/22 10:13:29;;;;;;;5.82;3.65;;;30.60;45.30;;;;;;4970568;28;46142;-63
2023/06/22 10:15:54;;;;;;;8.25;4.93;;;30.50;44.60;;;;;;4963566;28;45500;-62
2023/06/22 10:18:20;;;;;;;11.40;4.47;;;30.20;43.90;;;;;;4968570;28;45384;-61
2023/06/22 10:20:48;;;;;;;8.98;4.07;;;30.00;43.60;;;;;;4948850;28;45253;-62
2023/06/22 10:23:13;;;;;;;7.82;4.10;;;29.70;43.00;;;;;;4952583;28;46193;-62
2023/06/22 10:25:39;;;;;;;8.27;3.90;;;29.40;42.70;;;;;;4952431;28;46006;-62
2023/06/22 10:28:04;;;;;;;9.90;3.75;;;29.30;42.10;;;;;;4973434;28;45264;-63
2023/06/22 10:30:30;;;;;;;7.00;3.90;;;29.10;41.60;;;;;;4931628;28;45253;-63
2023/06/22 10:32:56;;;;;;;8.23;4.15;;;28.90;40.90;;;;;;4972326;28;46767;-62
2023/06/22 10:35:21;;;;;;;7.68;4.00;;;28.70;40.30;;;;;;4967146;28;45268;-62
2023/06/22 10:37:47;;;;;;;4.90;3.80;;;28.60;40.00;;;;;;4964265;28;45152;-62
2023/06/22 10:40:13;;;;;;;9.27;4.03;;;28.40;39.40;;;;;;4967259;28;45354;-60
2023/06/22 10:42:39;;;;;;;6.75;4.18;;;28.40;39.10;;;;;;4971962;28;47540;-56
2023/06/22 10:45:05;;;;;;;7.32;4.25;;;28.30;38.70;;;;;;4964420;28;45331;-57
2023/06/22 10:47:30;;;;;;;5.30;3.75;;;28.20;38.20;;;;;;4967073;28;46140;-55
2023/06/22 10:49:56;;;;;;;6.68;4.10;;;28.20;37.70;;;;;;4974794;28;45700;-56
2023/06/22 10:52:21;;;;;;;7.28;3.65;;;28.00;37.30;;;;;;4963839;28;45641;-55
2023/06/22 10:54:47;;;;;;;5.10;3.40;;;27.90;37.00;;;;;;4973902;28;45734;-56
2023/06/22 10:57:12;;;;;;;7.07;3.92;;;27.80;36.70;;;;;;4967194;28;45786;-55
2023/06/22 10:59:38;;;;;;;6.30;4.10;;;27.70;36.50;;;;;;4968098;28;45603;-57
2023/06/22 11:02:03;;;;;;;7.63;3.95;;;27.60;36.20;;;;;;4963155;28;46066;-55
2023/06/22 11:04:29;;;;;;;5.70;3.15;;;27.50;36.00;;;;;;4970192;28;45169;-55
2023/06/22 11:06:56;;;;;;;7.70;3.58;;;27.50;35.90;;;;;;4963399;28;45555;-56
2023/06/22 11:09:21;;;;;;;5.30;3.00;;;27.40;35.30;;;;;;4973251;28;45613;-56
2023/06/22 11:11:47;;;;;;;4.25;3.17;;;27.40;35.00;;;;;;4968185;28;46717;-56
2023/06/22 11:14:13;;;;;;;6.45;3.55;;;27.30;34.60;;;;;;4968856;28;44889;-54
2023/06/22 11:16:39;;;;;;;4.80;3.15;;;27.20;34.50;;;;;;4931839;28;45605;-55
2023/06/22 11:19:05;;;;;;;4.57;2.60;;;27.20;34.20;;;;;;4973533;28;45532;-53
2023/06/22 11:21:31;;;;;;;6.68;3.00;;;27.10;34.10;;;;;;4944619;28;47213;-57
2023/06/22 11:23:56;;;;;;;5.90;3.20;;;27.10;33.70;;;;;;4972403;28;45005;-56
2023/06/22 11:26:22;;;;;;;5.18;3.28;;;27.00;33.50;;;;;;4967623;28;45639;-57
2023/06/22 11:28:47;;;;;;;6.65;3.40;;;27.00;33.70;;;;;;4969444;28;45649;-54
2023/06/22 11:31:14;;;;;;;5.88;2.85;;;26.90;33.40;;;;;;4963020;28;45913;-56
2023/06/22 11:33:39;;;;;;;6.40;3.13;;;26.90;33.40;;;;;;4968844;28;45367;-57
2023/06/22 11:36:05;;;;;;;5.93;3.55;;;26.80;33.40;;;;;;4960111;28;45876;-57
2023/06/22 11:38:30;;;;;;;7.03;3.35;;;26.70;33.30;;;;;;4969779;28;45340;-56
2023/06/22 11:40:58;;;;;;;5.22;3.25;;;26.60;33.30;;;;;;4970192;28;46913;-56
2023/06/22 11:43:23;;;;;;;4.47;3.20;;;26.60;32.90;;;;;;4952575;28;45226;-56
2023/06/22 11:45:49;;;;;;;3.63;2.78;;;26.50;33.70;;;;;;4954640;28;44926;-52
2023/06/22 11:48:14;;;;;;;5.63;2.85;;;26.50;33.00;;;;;;4965457;28;45304;-54
2023/06/22 11:50:40;;;;;;;6.57;3.53;;;26.40;33.00;;;;;;4963957;28;45965;-56
2023/06/22 11:53:06;;;;;;;5.75;3.08;;;26.30;32.90;;;;;;4971201;28;45034;-55
2023/06/22 11:55:32;;;;;;;9.38;3.20;;;26.30;32.90;;;;;;4967581;28;45599;-55
2023/06/22 11:58:03;;;;;;;3.72;2.92;;;26.20;32.80;;;;;;4971335;28;46418;-56
2023/06/22 12:00:29;;;;;;;3.97;2.90;;;26.10;32.80;;;;;;4945578;28;45304;-55
2023/06/22 12:02:55;;;;;;;5.97;3.30;;;26.10;33.10;;;;;;4971025;28;45483;-56
2023/06/22 12:05:22;;;;;;;5.15;3.47;;;26.10;32.80;;;;;;4963239;28;45791;-57
2023/06/22 12:07:47;;;;;;;4.78;3.15;;;26.00;32.90;;;;;;4969467;28;45249;-54
2023/06/22 12:10:13;;;;;;;4.45;2.95;;;25.90;32.70;;;;;;4962238;28;46456;-56
2023/06/22 12:12:38;;;;;;;4.40;3.05;;;25.90;32.80;;;;;;4953829;28;45660;-56
2023/06/22 12:15:05;;;;;;;5.88;3.17;;;25.80;32.70;;;;;;4970883;28;45200;-57
2023/06/22 12:17:31;;;;;;;6.63;3.47;;;25.80;32.70;;;;;;4931909;28;45104;-55
2023/06/22 12:19:56;;;;;;;5.05;3.08;;;25.70;32.70;;;;;;4970000;28;46132;-57
2023/06/22 12:22:22;;;;;;;4.78;2.97;;;25.60;32.60;;;;;;4964673;28;45216;-57
2023/06/22 12:24:47;;;;;;;5.70;2.97;;;25.60;32.80;;;;;;4973285;28;45510;-56
2023/06/22 12:27:16;;;;;;;4.20;2.80;;;25.60;32.80;;;;;;4963548;28;45603;-54
2023/06/22 12:29:41;;;;;;;4.78;3.15;;;25.50;32.70;;;;;;4969989;28;45356;-56
2023/06/22 12:32:07;;;;;;;5.05;3.33;;;25.50;32.70;;;;;;4961614;28;45553;-54
2023/06/22 12:34:33;;;;;;;3.80;2.80;;;25.50;32.60;;;;;;4971318;28;45563;-55
2023/06/22 12:36:58;;;;;;;7.93;3.10;;;25.40;32.70;;;;;;4965305;28;45578;-57
2023/06/22 12:39:24;;;;;;;6.20;3.10;;;25.40;32.60;;;;;;4964063;28;45273;-55
2023/06/22 12:41:49;;;;;;;5.43;3.33;;;25.40;32.50;;;;;;4967218;28;45562;-54
2023/06/22 12:44:15;;;;;;;4.82;2.83;;;25.30;32.60;;;;;;4971188;28;45442;-60
2023/06/22 12:46:40;;;;;;;6.20;3.20;;;25.30;32.60;;;;;;4957296;28;46344;-56
2023/06/22 12:49:06;;;;;;;4.25;3.00;;;25.20;32.60;;;;;;4970214;28;45878;-57
2023/06/22 12:51:31;;;;;;;4.63;3.10;;;25.20;32.80;;;;;;4961487;28;44925;-58
2023/06/22 12:53:57;;;;;;;5.28;2.95;;;25.20;32.70;;;;;;4970411;28;45184;-57
2023/06/22 12:56:22;;;;;;;4.15;3.00;;;25.10;32.80;;;;;;4961122;28;45443;-54
2023/06/22 12:58:48;;;;;;;3.67;2.75;;;25.10;32.80;;;;;;4968355;28;46182;-53
2023/06/22 13:01:14;;;;;;;6.63;2.85;;;25.00;32.90;;;;;;4961287;28;45993;-53
2023/06/22 13:03:40;;;;;;;4.43;2.90;;;25.00;32.90;;;;;;4970727;28;45286;-54
2023/06/22 13:06:05;;;;;;;3.78;2.70;;;25.00;32.90;;;;;;4970046;28;45352;-55
2023/06/22 13:08:31;;;;;;;4.25;2.72;;;24.90;33.00;;;;;;4972384;28;46640;-55
2023/06/22 13:10:59;;;;;;;4.38;2.78;;;24.90;33.10;;;;;;4964643;28;45867;-55
2023/06/22 13:13:26;;;;;;;4.07;2.75;;;24.80;33.10;;;;;;4971745;28;44745;-56
2023/06/22 13:15:53;;;;;;;3.65;2.60;;;24.80;33.00;;;;;;4965385;28;45246;-57
2023/06/22 13:18:18;;;;;;;5.93;2.70;;;24.80;33.00;;;;;;4972634;28;45732;-56
2023/06/22 13:20:45;;;;;;;3.60;2.55;;;24.70;33.00;;;;;;4968674;28;45474;-53
2023/06/22 13:23:11;;;;;;;3.50;2.65;;;24.70;33.00;;;;;;4974177;28;45527;-56
2023/06/22 13:25:36;;;;;;;4.40;2.70;;;24.70;33.00;;;;;;4969724;28;45363;-57
2023/06/22 13:28:02;;;;;;;4.47;2.80;;;24.70;33.00;;;;;;4970549;28;45182;-57
2023/06/22 13:30:27;;;;;;;3.63;2.70;;;24.60;32.90;;;;;;4961012;28;45533;-57
2023/06/22 13:32:53;;;;;;;3.58;2.70;;;24.60;32.80;;;;;;4954793;28;45086;-55
2023/06/22 13:35:18;;;;;;;3.88;2.63;;;24.60;32.90;;;;;;4967879;28;45529;-57
2023/06/22 13:37:44;;;;;;;3.83;2.83;;;24.60;32.90;;;;;;4955404;28;46348;-58
2023/06/22 13:40:10;;;;;;;5.95;2.70;;;24.50;32.90;;;;;;4970464;28;45520;-55
2023/06/22 13:42:35;;;;;;;5.50;2.42;;;24.60;33.30;;;;;;4965369;28;44979;-57
2023/06/22 13:45:01;;;;;;;4.07;2.63;;;24.50;33.60;;;;;;4970791;28;45176;-58
2023/06/22 13:47:27;;;;;;;2.58;2.13;;;24.60;33.80;;;;;;4962621;28;45040;-58
2023/06/22 13:49:52;;;;;;;3.55;2.30;;;24.60;33.90;;;;;;4971115;28;45529;-57
2023/06/22 13:52:18;;;;;;;3.83;2.72;;;24.60;34.20;;;;;;4969200;28;45393;-57
2023/06/22 13:54:43;;;;;;;3.55;2.40;;;24.60;34.40;;;;;;4972131;28;45387;-55
2023/06/22 13:57:09;;;;;;;3.30;2.50;;;24.60;34.20;;;;;;4969139;28;46223;-55
2023/06/22 13:59:34;;;;;;;4.30;2.72;;;24.60;34.10;;;;;;4968131;28;45009;-55
2023/06/22 14:02:00;;;;;;;2.88;2.30;;;24.50;34.10;;;;;;4962068;28;45767;-58
2023/06/22 14:04:25;;;;;;;3.17;2.35;;;24.50;34.10;;;;;;4971372;28;45121;-56
2023/06/22 14:06:51;;;;;;;2.85;1.95;;;24.50;34.20;;;;;;4968810;28;46929;-55
2023/06/22 14:09:16;;;;;;;3.70;2.00;;;24.60;34.10;;;;;;4972337;28;45336;-56
2023/06/22 14:11:42;;;;;;;5.85;2.25;;;24.80;34.10;;;;;;4968605;28;45612;-54
2023/06/22 14:14:07;;;;;;;3.45;1.90;;;24.90;34.10;;;;;;4952750;28;45368;-56
2023/06/22 14:16:33;;;;;;;4.38;2.50;;;25.00;34.00;;;;;;4961950;28;45508;-57
2023/06/22 14:18:58;;;;;;;2.15;1.95;;;25.20;34.10;;;;;;4971176;28;45203;-56
2023/06/22 14:21:25;;;;;;;2.88;1.90;;;25.30;34.10;;;;;;4965952;28;45333;-53
2023/06/22 14:23:51;;;;;;;3.25;2.15;;;25.40;34.20;;;;;;4955511;28;45428;-56
2023/06/22 14:26:19;;;;;;;2.30;2.08;;;25.40;34.30;;;;;;4969422;28;46219;-55
2023/06/22 14:28:47;;;;;;;2.22;1.70;;;25.50;34.40;;;;;;4971471;28;45178;-59
2023/06/22 14:31:14;;;;;;;3.35;1.85;;;25.60;34.60;;;;;;4958633;28;45738;-57
2023/06/22 14:33:40;;;;;;;3.95;2.30;;;25.70;34.70;;;;;;4967146;28;45281;-56
2023/06/22 14:36:05;;;;;;;3.22;1.92;;;25.70;34.80;;;;;;4966926;28;45827;-58
2023/06/22 14:38:31;;;;;;;5.97;1.77;;;25.80;35.10;;;;;;4968474;28;44658;-55
2023/06/22 14:40:56;;;;;;;3.42;2.10;;;25.90;35.30;;;;;;4968098;28;46017;-56
2023/06/22 14:43:22;;;;;;;2.72;1.80;;;26.00;35.20;;;;;;4970556;28;44844;-57
2023/06/22 14:45:47;;;;;;;2.50;1.80;;;26.00;35.20;;;;;;4947767;28;45839;-57
2023/06/22 14:48:13;;;;;;;2.28;1.92;;;26.10;35.30;;;;;;4970228;28;45525;-57
2023/06/22 14:50:38;;;;;;;3.13;1.90;;;26.20;35.40;;;;;;4967363;28;45262;-56
2023/06/22 14:53:04;;;;;;;4.85;2.10;;;26.20;35.50;;;;;;4971554;28;44967;-57
2023/06/22 14:55:30;;;;;;;3.33;1.92;;;26.30;35.60;;;;;;4957246;28;46027;-63
2023/06/22 14:57:55;;;;;;;4.13;2.25;;;26.40;35.80;;;;;;4970178;28;46228;-56
2023/06/22 15:00:21;;;;;;;3.00;2.15;;;26.40;35.80;;;;;;4965364;28;45528;-58
2023/06/22 15:02:46;;;;;;;2.58;2.03;;;26.50;36.00;;;;;;4967530;28;45333;-56
2023/06/22 15:05:12;;;;;;;3.58;1.90;;;26.50;35.90;;;;;;4961794;28;46457;-60
2023/06/22 15:07:37;;;;;;;2.92;2.10;;;26.60;36.10;;;;;;4939727;28;45280;-57
2023/06/22 15:10:03;;;;;;;3.65;2.50;;;26.70;36.20;;;;;;4970701;28;44963;-57
2023/06/22 15:12:29;;;;;;;3.42;1.90;;;26.70;36.20;;;;;;4967148;28;45417;-56
2023/06/22 15:14:55;;;;;;;2.35;1.80;;;26.80;36.30;;;;;;4966880;28;45845;-57
2023/06/22 15:17:20;;;;;;;2.03;1.70;;;26.80;36.30;;;;;;4953246;28;45361;-56
2023/06/22 15:19:46;;;;;;;2.58;1.65;;;26.80;36.30;;;;;;4936843;28;45854;-54
2023/06/22 15:22:12;;;;;;;2.63;1.80;;;26.90;36.40;;;;;;4966694;28;45749;-56
2023/06/22 15:24:38;;;;;;;2.90;1.90;;;26.90;36.50;;;;;;4969769;28;46197;-54
2023/06/22 15:27:04;;;;;;;1.67;1.58;;;26.90;36.50;;;;;;4962888;28;45061;-57
2023/06/22 15:29:33;;;;;;;2.55;1.70;;;27.00;36.60;;;;;;4965852;28;45560;-56
2023/06/22 15:31:59;;;;;;;2.05;1.77;;;27.10;37.30;;;;;;4958092;28;45641;-56
2023/06/22 15:34:25;;;;;;;1.90;1.70;;;27.10;36.70;;;;;;4950224;28;47309;-55
2023/06/22 15:36:50;;;;;;;2.92;1.77;;;27.10;36.70;;;;;;4963510;28;45491;-57
2023/06/22 15:39:16;;;;;;;2.13;1.75;;;27.20;36.80;;;;;;4966111;28;44797;-57